Time;durP1;ratioP1;P1;durP2;ratioP2;P2;SDS_P1;SDS_P2;PMS_P1;PMS_P2;Temp;Humidity;BMP_temperature;BMP_pressure;BME280_temperature;BME280_humidity;BME280_pressure;Samples;Min_cycle;Max_cycle;Signal;HPM_P1;HPM_P2
2024/03/25 00:02:09;;;;;;;3.63;1.33;;;6.50;99.90;;;;;;4980982;28;20214;-74
2024/03/25 00:04:35;;;;;;;3.50;1.37;;;6.60;99.90;;;;;;4967056;28;20365;-73
2024/03/25 00:07:01;;;;;;;2.43;1.40;;;6.50;99.90;;;;;;4984658;28;20229;-73
2024/03/25 00:09:27;;;;;;;2.27;1.67;;;6.50;99.90;;;;;;4981273;28;20461;-70
2024/03/25 00:11:54;;;;;;;1.20;1.20;;;6.50;99.90;;;;;;4981816;28;20512;-74
2024/03/25 00:14:23;;;;;;;2.00;1.40;;;6.50;99.90;;;;;;4983369;28;20454;-71
2024/03/25 00:16:49;;;;;;;1.70;1.60;;;6.50;99.90;;;;;;4984124;28;20951;-73
2024/03/25 00:19:15;;;;;;;2.13;1.40;;;6.50;99.90;;;;;;4980668;28;20540;-73
2024/03/25 00:21:41;;;;;;;3.90;1.10;;;6.50;99.90;;;;;;4985433;28;20537;-73
2024/03/25 00:24:07;;;;;;;1.30;1.20;;;6.40;99.90;;;;;;4965449;28;20458;-73
2024/03/25 00:26:33;;;;;;;1.63;1.20;;;6.40;99.90;;;;;;4985475;28;20450;-74
2024/03/25 00:28:59;;;;;;;1.97;1.30;;;6.40;99.90;;;;;;4966882;28;20213;-73
2024/03/25 00:31:25;;;;;;;3.77;2.40;;;6.40;99.90;;;;;;4964771;28;20728;-73
2024/03/25 00:33:50;;;;;;;3.93;2.67;;;6.40;99.90;;;;;;4965381;28;20232;-73
2024/03/25 00:36:17;;;;;;;2.33;2.10;;;6.40;99.90;;;;;;4981394;28;20214;-73
2024/03/25 00:38:43;;;;;;;1.70;1.53;;;6.40;99.90;;;;;;4979828;28;20222;-73
2024/03/25 00:41:09;;;;;;;2.30;1.80;;;6.40;99.90;;;;;;4963309;28;20483;-73
2024/03/25 00:43:35;;;;;;;3.80;2.00;;;6.40;99.90;;;;;;4986269;28;20224;-73
2024/03/25 00:46:00;;;;;;;1.83;1.57;;;6.30;99.90;;;;;;4983008;28;20719;-73
2024/03/25 00:48:26;;;;;;;1.70;1.60;;;6.30;99.90;;;;;;4987923;28;20356;-71
2024/03/25 00:50:52;;;;;;;2.50;2.10;;;6.30;99.90;;;;;;4985254;28;20223;-73
2024/03/25 00:53:18;;;;;;;2.17;1.87;;;6.30;99.90;;;;;;4975776;28;20473;-73
2024/03/25 00:55:44;;;;;;;4.20;2.13;;;6.30;99.90;;;;;;4985250;28;20265;-73
2024/03/25 00:58:10;;;;;;;5.23;1.80;;;6.30;99.90;;;;;;4984904;28;20276;-73
2024/03/25 01:00:35;;;;;;;1.90;1.70;;;6.30;99.90;;;;;;4969186;28;20473;-73
2024/03/25 01:03:01;;;;;;;2.80;1.83;;;6.20;99.90;;;;;;4980208;28;20218;-73
2024/03/25 01:05:27;;;;;;;2.27;1.60;;;6.20;99.90;;;;;;4966097;28;20227;-74
2024/03/25 01:07:53;;;;;;;3.47;1.50;;;6.20;99.90;;;;;;4952571;28;20498;-73
2024/03/25 01:10:19;;;;;;;5.60;2.20;;;6.20;99.90;;;;;;4981625;28;20226;-73
2024/03/25 01:12:44;;;;;;;2.27;1.33;;;6.20;99.90;;;;;;4967611;28;20227;-73
2024/03/25 01:15:11;;;;;;;4.50;1.70;;;6.20;99.90;;;;;;4968500;28;20700;-73
2024/03/25 01:17:37;;;;;;;2.90;1.53;;;6.20;99.90;;;;;;4982272;28;20476;-73
2024/03/25 01:20:06;;;;;;;4.23;2.10;;;6.10;99.90;;;;;;4965538;28;20672;-73
2024/03/25 01:22:32;;;;;;;3.60;1.80;;;6.10;99.90;;;;;;4983580;28;20310;-72
2024/03/25 01:24:58;;;;;;;3.40;1.90;;;6.00;99.90;;;;;;4982492;28;20620;-72
2024/03/25 01:27:23;;;;;;;2.87;1.70;;;6.00;99.90;;;;;;4982360;28;20287;-73
2024/03/25 01:29:49;;;;;;;1.87;1.33;;;6.00;99.90;;;;;;4971160;28;20221;-73
2024/03/25 01:32:15;;;;;;;1.50;1.40;;;6.10;99.90;;;;;;4982740;28;20236;-73
2024/03/25 01:34:40;;;;;;;1.87;1.67;;;6.00;99.90;;;;;;4974394;28;20316;-74
2024/03/25 01:37:06;;;;;;;1.60;1.20;;;6.10;99.90;;;;;;4981877;28;20222;-72
2024/03/25 01:39:31;;;;;;;5.33;1.73;;;6.10;99.90;;;;;;4954481;28;20219;-74
2024/03/25 01:41:57;;;;;;;4.63;1.50;;;6.10;99.90;;;;;;4958909;28;20209;-72
2024/03/25 01:44:24;;;;;;;3.93;2.07;;;6.10;99.90;;;;;;4969309;28;20589;-74
2024/03/25 01:46:52;;;;;;;4.37;1.97;;;6.20;99.90;;;;;;4983670;28;20234;-73
2024/03/25 01:49:18;;;;;;;5.07;1.83;;;6.00;99.90;;;;;;4980446;28;20448;-73
2024/03/25 01:51:44;;;;;;;2.63;1.30;;;6.00;99.90;;;;;;4980604;28;20463;-73
2024/03/25 01:54:10;;;;;;;2.13;1.90;;;6.10;99.90;;;;;;4984072;28;20478;-73
2024/03/25 01:56:36;;;;;;;2.60;1.70;;;6.10;99.90;;;;;;4975381;28;20214;-73
2024/03/25 01:59:03;;;;;;;1.77;1.50;;;6.10;99.90;;;;;;4985741;28;20241;-73
2024/03/25 02:01:29;;;;;;;3.67;1.87;;;6.10;99.90;;;;;;4984011;28;20473;-73
2024/03/25 02:03:56;;;;;;;3.70;1.40;;;6.00;99.90;;;;;;4964113;28;20968;-73
2024/03/25 02:06:21;;;;;;;2.70;1.70;;;6.00;99.90;;;;;;4982940;28;20500;-73
2024/03/25 02:08:49;;;;;;;1.93;1.60;;;5.90;99.90;;;;;;4985151;28;20461;-72
2024/03/25 02:11:16;;;;;;;2.17;1.77;;;5.80;99.90;;;;;;4980219;28;20237;-73
2024/03/25 02:13:41;;;;;;;1.47;1.33;;;5.80;99.90;;;;;;4964726;28;20496;-73
2024/03/25 02:16:07;;;;;;;5.33;2.37;;;5.90;99.90;;;;;;4966389;28;20454;-73
2024/03/25 02:18:33;;;;;;;4.47;1.93;;;5.90;99.90;;;;;;4968195;28;20220;-74
2024/03/25 02:20:59;;;;;;;1.53;1.43;;;5.80;99.90;;;;;;4984571;28;20245;-74
2024/03/25 02:23:28;;;;;;;1.90;1.70;;;5.80;99.90;;;;;;4970616;28;20257;-73
2024/03/25 02:25:54;;;;;;;1.57;1.40;;;5.70;99.90;;;;;;4985310;28;20533;-73
2024/03/25 02:28:20;;;;;;;2.30;1.80;;;5.70;99.90;;;;;;4985770;28;20493;-73
2024/03/25 02:30:46;;;;;;;11.83;2.93;;;5.70;99.90;;;;;;4985966;28;20592;-73
2024/03/25 02:33:11;;;;;;;2.20;1.50;;;5.70;99.90;;;;;;4989256;28;20531;-74
2024/03/25 02:35:39;;;;;;;3.80;2.10;;;5.70;99.90;;;;;;4988326;28;20468;-73
2024/03/25 02:38:05;;;;;;;2.33;1.47;;;5.60;99.90;;;;;;4981560;28;20242;-73
2024/03/25 02:40:31;;;;;;;1.47;1.20;;;5.60;99.90;;;;;;4971726;28;20493;-72
2024/03/25 02:42:57;;;;;;;3.90;1.37;;;5.60;99.90;;;;;;4975480;28;21050;-73
2024/03/25 02:45:23;;;;;;;1.97;1.60;;;5.60;99.90;;;;;;4986248;28;20481;-71
2024/03/25 02:47:50;;;;;;;10.03;2.27;;;5.60;99.90;;;;;;4978359;28;21030;-73
2024/03/25 02:50:16;;;;;;;1.97;1.50;;;5.50;99.90;;;;;;4982343;28;20225;-72
2024/03/25 02:52:41;;;;;;;1.77;1.40;;;5.50;99.90;;;;;;4990848;28;20560;-73
2024/03/25 02:55:07;;;;;;;1.50;1.40;;;5.50;99.90;;;;;;4966312;28;20252;-72
2024/03/25 02:57:33;;;;;;;2.00;1.60;;;5.40;99.90;;;;;;4954068;28;20724;-73
2024/03/25 02:59:58;;;;;;;1.90;1.50;;;5.30;99.90;;;;;;4987603;28;20226;-74
2024/03/25 03:02:24;;;;;;;1.53;1.43;;;5.40;99.90;;;;;;4986699;28;20229;-73
2024/03/25 03:04:50;;;;;;;5.40;1.47;;;5.40;99.90;;;;;;4987795;28;20218;-73
2024/03/25 03:07:15;;;;;;;4.73;1.70;;;5.30;99.90;;;;;;4971938;28;20213;-73
2024/03/25 03:09:41;;;;;;;1.93;1.70;;;5.40;99.90;;;;;;4981001;28;20216;-72
2024/03/25 03:12:07;;;;;;;3.33;2.10;;;5.40;99.90;;;;;;4989079;28;20242;-73
2024/03/25 03:14:32;;;;;;;6.30;1.87;;;5.50;99.90;;;;;;4980657;28;20229;-73
2024/03/25 03:16:58;;;;;;;1.40;1.30;;;5.40;99.90;;;;;;4970851;28;20218;-73
2024/03/25 03:19:26;;;;;;;1.50;1.40;;;5.50;99.90;;;;;;4986965;28;20226;-74
2024/03/25 03:21:52;;;;;;;1.60;1.50;;;5.60;99.90;;;;;;4972334;28;20229;-73
2024/03/25 03:24:18;;;;;;;10.20;1.60;;;5.70;99.90;;;;;;4963298;28;20457;-73
2024/03/25 03:26:44;;;;;;;2.60;1.53;;;5.80;99.90;;;;;;4986592;28;20308;-73
2024/03/25 03:29:10;;;;;;;2.30;1.50;;;5.90;99.90;;;;;;4969738;28;20229;-74
2024/03/25 03:31:36;;;;;;;1.47;1.37;;;5.90;99.90;;;;;;4990663;28;20458;-74
2024/03/25 03:34:02;;;;;;;2.07;1.40;;;5.90;99.90;;;;;;4969588;28;20234;-71
2024/03/25 03:36:28;;;;;;;3.40;1.60;;;5.90;99.90;;;;;;4969665;28;20461;-73
2024/03/25 03:38:53;;;;;;;4.00;1.57;;;5.90;99.90;;;;;;4968488;28;20229;-74
2024/03/25 03:41:20;;;;;;;1.37;1.27;;;6.00;99.90;;;;;;4982658;28;20229;-73
2024/03/25 03:43:45;;;;;;;1.27;1.10;;;6.00;99.90;;;;;;4985359;28;20222;-73
2024/03/25 03:46:11;;;;;;;1.37;1.27;;;6.00;99.90;;;;;;4969575;28;20470;-73
2024/03/25 03:48:38;;;;;;;1.93;1.70;;;6.00;99.90;;;;;;4989675;28;20308;-72
2024/03/25 03:51:07;;;;;;;2.40;1.57;;;6.00;99.90;;;;;;4971729;28;20463;-74
2024/03/25 03:53:34;;;;;;;2.50;1.23;;;6.00;99.90;;;;;;4989950;28;20959;-72
2024/03/25 03:56:05;;;;;;;3.87;1.80;;;6.00;99.90;;;;;;4987508;28;20478;-73
2024/03/25 03:58:31;;;;;;;2.23;1.63;;;6.00;99.90;;;;;;4968511;28;20536;-74
2024/03/25 04:00:57;;;;;;;1.43;1.30;;;6.00;99.90;;;;;;4968861;28;20468;-73
2024/03/25 04:03:23;;;;;;;4.60;1.30;;;5.90;99.90;;;;;;4984732;28;20885;-72
2024/03/25 04:05:49;;;;;;;2.03;1.80;;;5.80;99.90;;;;;;4988994;28;20469;-73
2024/03/25 04:08:15;;;;;;;1.57;1.43;;;5.90;99.90;;;;;;4968928;28;20975;-73
2024/03/25 04:10:41;;;;;;;2.00;1.40;;;5.90;99.90;;;;;;4972577;28;20266;-73
2024/03/25 04:13:11;;;;;;;1.37;1.27;;;5.90;99.90;;;;;;4971750;28;20710;-73
2024/03/25 04:15:37;;;;;;;3.07;1.57;;;5.80;99.90;;;;;;4985519;28;20483;-72
2024/03/25 04:18:04;;;;;;;1.77;1.00;;;5.80;99.90;;;;;;4971438;28;20898;-73
2024/03/25 04:20:35;;;;;;;3.43;1.47;;;5.80;99.90;;;;;;4989366;28;20545;-72
2024/03/25 04:23:01;;;;;;;1.60;1.27;;;5.70;99.90;;;;;;4968100;28;20555;-71
2024/03/25 04:25:26;;;;;;;2.20;1.47;;;5.70;99.90;;;;;;4986980;28;20553;-72
2024/03/25 04:27:52;;;;;;;6.83;2.03;;;5.80;99.90;;;;;;4970785;28;20589;-73
2024/03/25 04:30:18;;;;;;;1.37;1.10;;;5.70;99.90;;;;;;4968516;28;20222;-73
2024/03/25 04:32:45;;;;;;;4.20;1.30;;;5.70;99.90;;;;;;4967210;28;20235;-72
2024/03/25 04:35:11;;;;;;;3.93;1.20;;;5.70;99.90;;;;;;4985927;28;20245;-72
2024/03/25 04:37:36;;;;;;;1.47;1.27;;;5.70;99.90;;;;;;4972892;28;20487;-72
2024/03/25 04:40:03;;;;;;;1.77;1.33;;;5.70;99.90;;;;;;4979825;28;20218;-74
2024/03/25 04:42:29;;;;;;;2.30;1.10;;;5.60;99.90;;;;;;4971494;28;20229;-72
2024/03/25 04:44:55;;;;;;;5.40;1.37;;;5.60;99.90;;;;;;4969650;28;20469;-73
2024/03/25 04:47:20;;;;;;;1.40;1.30;;;5.60;99.90;;;;;;4981837;28;20249;-73
2024/03/25 04:49:46;;;;;;;2.07;1.37;;;5.70;99.90;;;;;;4968301;28;20218;-72
2024/03/25 04:52:18;;;;;;;1.00;1.00;;;5.70;99.90;;;;;;4959296;28;20218;-72
2024/03/25 04:54:44;;;;;;;3.30;1.10;;;5.70;99.90;;;;;;4974412;28;20493;-72
2024/03/25 04:57:09;;;;;;;9.40;1.50;;;5.60;99.90;;;;;;4961436;28;20497;-72
2024/03/25 04:59:35;;;;;;;3.47;1.77;;;5.60;99.90;;;;;;4985087;28;20226;-73
2024/03/25 05:02:01;;;;;;;0.90;0.90;;;5.60;99.90;;;;;;4969857;28;20777;-71
2024/03/25 05:04:27;;;;;;;1.10;1.00;;;5.60;99.90;;;;;;4980530;28;20230;-73
2024/03/25 05:06:53;;;;;;;1.63;1.30;;;5.70;99.90;;;;;;4970413;28;20223;-72
2024/03/25 05:09:18;;;;;;;5.67;1.90;;;5.70;99.90;;;;;;4971347;28;20226;-71
2024/03/25 05:11:44;;;;;;;2.67;1.87;;;5.70;99.90;;;;;;4949901;28;20227;-73
2024/03/25 05:14:10;;;;;;;1.63;1.53;;;5.70;99.90;;;;;;4984066;28;20689;-72
2024/03/25 05:16:36;;;;;;;3.70;1.70;;;5.60;99.90;;;;;;4968711;28;20234;-72
2024/03/25 05:19:03;;;;;;;1.83;1.23;;;5.60;99.90;;;;;;4986011;28;20253;-73
2024/03/25 05:21:30;;;;;;;144.93;59.97;;;5.60;99.90;;;;;;4983858;28;20456;-72
2024/03/25 05:23:55;;;;;;;307.77;121.93;;;5.60;99.90;;;;;;4966349;28;20453;-73
2024/03/25 05:26:21;;;;;;;287.83;118.97;;;5.60;99.90;;;;;;4966046;28;20462;-74
2024/03/25 05:28:52;;;;;;;138.60;61.80;;;5.60;99.90;;;;;;4980241;28;20224;-73
2024/03/25 05:31:18;;;;;;;87.33;44.83;;;5.60;99.90;;;;;;4971074;28;20332;-73
2024/03/25 05:33:44;;;;;;;54.10;27.33;;;5.50;99.90;;;;;;4983033;28;21019;-73
2024/03/25 05:36:09;;;;;;;38.57;18.27;;;5.50;99.90;;;;;;4965715;28;20683;-72
2024/03/25 05:38:35;;;;;;;19.47;11.90;;;5.50;99.90;;;;;;4960448;28;20304;-73
2024/03/25 05:41:00;;;;;;;19.13;9.60;;;5.50;99.90;;;;;;4967148;28;20219;-73
2024/03/25 05:43:26;;;;;;;11.67;6.90;;;5.40;99.90;;;;;;4983906;28;20246;-73
2024/03/25 05:45:55;;;;;;;8.83;4.03;;;5.40;99.90;;;;;;4966689;28;20230;-73
2024/03/25 05:48:24;;;;;;;5.30;3.60;;;5.30;99.90;;;;;;4981295;28;20680;-72
2024/03/25 05:50:59;;;;;;;4.97;3.50;;;5.40;99.90;;;;;;4981373;28;20472;-74
2024/03/25 05:53:29;;;;;;;3.60;2.97;;;5.30;99.90;;;;;;4984203;28;20472;-71
2024/03/25 05:55:55;;;;;;;4.20;1.93;;;5.30;99.90;;;;;;4982162;28;20488;-74
2024/03/25 05:58:21;;;;;;;3.60;2.20;;;5.40;99.90;;;;;;4970619;28;20473;-73
2024/03/25 06:00:51;;;;;;;3.90;1.67;;;5.40;99.90;;;;;;4973081;28;20476;-70
2024/03/25 06:03:19;;;;;;;3.43;2.20;;;5.30;99.90;;;;;;4965992;28;20463;-73
2024/03/25 06:05:45;;;;;;;2.13;1.57;;;5.40;99.90;;;;;;4969070;28;20472;-73
2024/03/25 06:08:26;;;;;;;3.07;2.10;;;5.40;99.90;;;;;;4986002;28;20485;-73
2024/03/25 06:10:53;;;;;;;4.30;1.80;;;5.40;99.90;;;;;;4991702;28;20465;-74
2024/03/25 06:13:19;;;;;;;2.07;1.60;;;5.40;99.90;;;;;;4973573;28;21021;-73
2024/03/25 06:15:45;;;;;;;2.83;1.63;;;5.40;99.90;;;;;;4986242;28;20880;-73
2024/03/25 06:18:11;;;;;;;1.70;1.57;;;5.30;99.90;;;;;;4974137;28;20482;-73
2024/03/25 06:20:37;;;;;;;2.03;1.83;;;5.30;99.90;;;;;;4991321;28;20836;-73
2024/03/25 06:23:03;;;;;;;1.93;1.30;;;5.40;99.90;;;;;;4970508;28;20230;-73
2024/03/25 06:25:30;;;;;;;2.83;1.70;;;5.40;99.90;;;;;;4983606;28;20534;-73
2024/03/25 06:27:56;;;;;;;3.97;1.83;;;5.40;99.90;;;;;;4987635;28;20556;-73
2024/03/25 06:35:52;;;;;;;4.10;1.90;;;5.40;99.90;;;;;;4971776;28;20457;-73
2024/03/25 06:38:17;;;;;;;4.07;1.83;;;5.40;99.90;;;;;;4970543;28;20479;-73
2024/03/25 06:40:44;;;;;;;7.37;2.17;;;5.40;99.90;;;;;;4984621;28;21061;-73
2024/03/25 06:43:10;;;;;;;4.60;1.40;;;5.40;99.90;;;;;;4969829;28;20243;-73
2024/03/25 06:45:36;;;;;;;4.57;2.03;;;5.30;99.90;;;;;;4971373;28;20513;-73
2024/03/25 06:48:01;;;;;;;4.93;2.40;;;5.40;99.90;;;;;;4987205;28;20265;-73
2024/03/25 06:50:27;;;;;;;6.23;1.47;;;5.40;99.90;;;;;;4985366;28;20288;-72
2024/03/25 06:52:52;;;;;;;3.43;1.37;;;5.30;99.90;;;;;;4984472;28;20719;-73
2024/03/25 06:55:22;;;;;;;5.10;1.33;;;5.10;99.90;;;;;;4976539;28;20301;-73
2024/03/25 06:57:48;;;;;;;2.63;1.40;;;5.10;99.90;;;;;;4956046;28;20229;-73
2024/03/25 07:00:14;;;;;;;1.43;1.27;;;5.20;99.90;;;;;;4970799;28;20470;-73
2024/03/25 07:02:40;;;;;;;1.83;1.60;;;5.30;99.90;;;;;;4984859;28;20461;-72
2024/03/25 07:05:07;;;;;;;1.67;1.57;;;5.40;99.90;;;;;;4975214;28;20461;-73
2024/03/25 07:07:36;;;;;;;2.53;1.80;;;5.40;99.90;;;;;;4967807;28;20470;-73
2024/03/25 07:10:02;;;;;;;4.50;1.13;;;5.40;99.90;;;;;;4990721;28;20454;-73
2024/03/25 07:12:28;;;;;;;1.33;1.23;;;5.40;99.90;;;;;;4969736;28;20474;-73
2024/03/25 07:14:54;;;;;;;3.27;1.40;;;5.50;99.90;;;;;;4988011;28;20218;-73
2024/03/25 07:17:21;;;;;;;6.70;1.60;;;5.50;99.90;;;;;;4988795;28;20484;-73
2024/03/25 07:19:47;;;;;;;6.70;1.17;;;5.60;99.90;;;;;;4989491;28;20228;-74
2024/03/25 07:22:13;;;;;;;6.40;1.60;;;5.60;99.90;;;;;;4977585;28;20553;-73
2024/03/25 07:24:38;;;;;;;1.90;1.30;;;5.70;99.90;;;;;;4989018;28;20533;-73
2024/03/25 07:27:04;;;;;;;2.17;1.30;;;5.80;99.90;;;;;;4989906;28;20312;-73
2024/03/25 07:29:30;;;;;;;1.93;1.50;;;5.80;99.90;;;;;;4987707;28;20387;-73
2024/03/25 07:31:55;;;;;;;1.13;1.03;;;5.80;99.90;;;;;;4988290;28;20221;-73
2024/03/25 07:34:21;;;;;;;2.40;1.50;;;5.90;99.90;;;;;;4983947;28;20230;-73
2024/03/25 07:36:48;;;;;;;2.33;1.60;;;5.90;99.90;;;;;;4967874;28;20750;-73
2024/03/25 07:39:14;;;;;;;2.67;1.20;;;6.00;99.90;;;;;;4981919;28;20232;-73
2024/03/25 07:41:40;;;;;;;1.50;0.80;;;6.00;99.90;;;;;;4964560;28;20469;-72
2024/03/25 07:44:06;;;;;;;4.47;1.73;;;6.10;99.90;;;;;;4986487;28;20462;-73
2024/03/25 07:46:31;;;;;;;2.20;1.67;;;6.20;99.90;;;;;;4971475;28;20585;-73
2024/03/25 07:48:57;;;;;;;4.10;1.40;;;6.30;99.90;;;;;;4989178;28;20835;-74
2024/03/25 07:51:23;;;;;;;3.53;1.77;;;6.30;99.90;;;;;;4952524;28;20229;-74
2024/03/25 07:53:49;;;;;;;2.40;1.30;;;6.40;99.90;;;;;;4979485;28;20234;-73
2024/03/25 07:56:15;;;;;;;1.60;1.50;;;6.40;99.90;;;;;;4982455;28;20458;-74
2024/03/25 07:58:41;;;;;;;3.80;1.47;;;6.50;99.90;;;;;;4983886;28;20470;-74
2024/03/25 08:01:07;;;;;;;5.20;1.40;;;6.60;99.90;;;;;;4982057;28;20230;-73
2024/03/25 08:03:33;;;;;;;1.77;1.47;;;6.70;99.90;;;;;;4965915;28;20909;-72
2024/03/25 08:05:59;;;;;;;4.20;1.40;;;6.80;99.90;;;;;;4965549;28;20712;-73
2024/03/25 08:08:25;;;;;;;3.17;2.50;;;6.90;99.90;;;;;;4988221;28;20462;-73
2024/03/25 08:10:52;;;;;;;2.23;1.90;;;6.90;99.90;;;;;;4966979;28;20482;-71
2024/03/25 08:13:19;;;;;;;5.60;1.90;;;6.90;99.90;;;;;;4968752;28;20231;-73
2024/03/25 08:15:46;;;;;;;3.07;1.73;;;7.10;99.90;;;;;;4968565;28;20496;-73
2024/03/25 08:18:11;;;;;;;3.63;1.50;;;7.20;99.90;;;;;;4981675;28;21014;-73
2024/03/25 08:20:38;;;;;;;3.47;1.87;;;7.40;99.90;;;;;;4982867;28;20548;-73
2024/03/25 08:23:04;;;;;;;3.73;2.10;;;7.60;99.90;;;;;;4982747;28;20344;-72
2024/03/25 08:25:29;;;;;;;3.50;1.73;;;7.80;99.90;;;;;;4983601;28;20544;-73
2024/03/25 08:27:55;;;;;;;4.23;2.30;;;7.90;99.90;;;;;;4984146;28;20242;-72
2024/03/25 08:30:21;;;;;;;3.33;2.00;;;8.00;99.90;;;;;;4987762;28;20597;-73
2024/03/25 08:32:46;;;;;;;3.87;1.30;;;8.10;99.90;;;;;;4981366;28;20316;-72
2024/03/25 08:35:12;;;;;;;3.50;1.90;;;8.10;99.90;;;;;;4966974;28;20230;-73
2024/03/25 08:37:38;;;;;;;2.57;1.60;;;8.20;99.90;;;;;;4967577;28;20700;-73
2024/03/25 08:40:05;;;;;;;1.50;1.40;;;8.20;99.90;;;;;;4981833;28;20476;-73
2024/03/25 08:42:30;;;;;;;4.00;1.63;;;8.40;99.90;;;;;;4978021;28;20222;-74
2024/03/25 08:44:56;;;;;;;2.67;1.77;;;8.40;99.90;;;;;;4958150;28;20510;-75
2024/03/25 08:47:22;;;;;;;6.53;1.70;;;8.50;99.90;;;;;;4966477;28;20245;-74
2024/03/25 08:49:48;;;;;;;5.40;2.10;;;8.60;99.90;;;;;;4981920;28;20986;-74
2024/03/25 08:52:13;;;;;;;3.10;1.60;;;8.60;99.90;;;;;;4981319;28;20626;-74
2024/03/25 08:54:39;;;;;;;4.73;2.20;;;8.70;99.90;;;;;;4968734;28;20253;-73
2024/03/25 08:57:04;;;;;;;6.70;2.13;;;9.00;99.90;;;;;;4964885;28;20237;-75
2024/03/25 08:59:30;;;;;;;5.80;3.10;;;9.10;99.90;;;;;;4986136;28;20747;-74
2024/03/25 09:01:56;;;;;;;2.20;1.80;;;9.10;99.90;;;;;;4967599;28;20214;-74
2024/03/25 09:04:21;;;;;;;4.17;1.80;;;9.10;99.90;;;;;;4984876;28;20221;-74
2024/03/25 09:06:47;;;;;;;2.10;1.80;;;9.20;99.90;;;;;;4986061;28;20222;-74
2024/03/25 09:11:57;;;;;;;3.30;1.73;;;9.50;99.90;;;;;;4984480;28;20457;-74
2024/03/25 09:14:23;;;;;;;3.50;2.23;;;9.60;99.90;;;;;;4979396;28;20600;-74
2024/03/25 09:16:49;;;;;;;8.20;2.00;;;9.80;99.90;;;;;;4966675;28;20217;-73
2024/03/25 09:19:14;;;;;;;4.10;2.80;;;10.00;99.90;;;;;;4968939;28;20301;-74
2024/03/25 09:21:40;;;;;;;3.10;2.80;;;9.90;99.90;;;;;;4970692;28;20209;-74
2024/03/25 09:24:06;;;;;;;2.87;2.20;;;9.80;99.90;;;;;;4986012;28;20446;-73
2024/03/25 09:26:32;;;;;;;5.47;2.20;;;9.80;99.90;;;;;;4966875;28;20282;-74
2024/03/25 09:28:57;;;;;;;9.80;2.60;;;9.80;99.90;;;;;;4985139;28;20460;-72
2024/03/25 09:31:23;;;;;;;5.40;2.10;;;10.00;99.90;;;;;;4985103;28;20353;-74
2024/03/25 09:33:48;;;;;;;6.23;2.90;;;10.20;99.90;;;;;;4977731;28;20307;-74
2024/03/25 09:36:14;;;;;;;8.03;2.10;;;10.50;99.90;;;;;;4982582;28;20222;-74
2024/03/25 09:38:40;;;;;;;4.87;2.67;;;10.70;99.90;;;;;;4967387;28;20280;-74
2024/03/25 09:41:08;;;;;;;6.47;2.80;;;10.90;99.90;;;;;;4986166;28;20222;-75
2024/03/25 09:43:47;;;;;;;5.93;2.70;;;10.90;99.90;;;;;;4965054;28;20319;-73
2024/03/25 09:46:13;;;;;;;4.10;2.00;;;10.90;99.90;;;;;;4984486;28;20472;-73
2024/03/25 09:48:41;;;;;;;4.27;2.67;;;10.90;99.90;;;;;;4969587;28;21074;-75
2024/03/25 09:51:08;;;;;;;3.83;2.27;;;11.00;99.90;;;;;;4985305;28;20465;-73
2024/03/25 09:53:34;;;;;;;4.07;2.33;;;11.10;99.90;;;;;;4981289;28;20483;-73
2024/03/25 09:56:00;;;;;;;3.80;1.80;;;11.20;99.90;;;;;;4985378;28;20979;-75
2024/03/25 09:58:27;;;;;;;4.47;2.10;;;11.30;99.90;;;;;;4986162;28;20214;-75
2024/03/25 10:00:54;;;;;;;1.67;1.57;;;11.20;99.90;;;;;;4966741;28;20263;-74
2024/03/25 10:03:20;;;;;;;5.23;1.87;;;11.20;99.90;;;;;;4985898;28;20453;-73
2024/03/25 10:05:46;;;;;;;1.90;1.73;;;11.20;99.90;;;;;;4977792;28;20500;-73
2024/03/25 10:08:12;;;;;;;3.47;2.00;;;11.20;99.90;;;;;;4966627;28;20986;-74
2024/03/25 10:10:38;;;;;;;3.70;1.80;;;11.20;99.90;;;;;;4982036;28;20217;-74
2024/03/25 10:13:06;;;;;;;2.40;2.00;;;11.30;99.90;;;;;;4985381;28;20249;-75
2024/03/25 10:15:33;;;;;;;2.50;1.70;;;11.50;99.90;;;;;;4974391;28;20222;-73
2024/03/25 10:17:58;;;;;;;2.17;1.63;;;11.70;99.90;;;;;;4979955;28;20458;-74
2024/03/25 10:20:25;;;;;;;1.60;1.50;;;12.00;99.90;;;;;;4970183;28;20457;-75
2024/03/25 10:22:51;;;;;;;3.00;1.77;;;12.10;99.90;;;;;;4969558;28;20257;-75
2024/03/25 10:25:23;;;;;;;3.43;2.27;;;12.20;99.90;;;;;;4968274;28;20935;-75
2024/03/25 10:27:59;;;;;;;4.47;1.77;;;12.30;99.90;;;;;;4962740;28;20221;-75
2024/03/25 10:30:26;;;;;;;5.07;2.13;;;12.30;99.90;;;;;;4986362;28;20464;-74
2024/03/25 10:33:18;;;;;;;2.57;1.67;;;12.30;99.90;;;;;;4983491;28;20496;-75
2024/03/25 10:35:46;;;;;;;2.73;1.50;;;12.50;99.90;;;;;;4961495;28;20484;-74
2024/03/25 10:38:16;;;;;;;2.90;1.77;;;12.60;99.90;;;;;;4981200;28;20496;-74
2024/03/25 10:40:44;;;;;;;1.90;1.50;;;12.50;99.90;;;;;;4982446;28;20482;-74
2024/03/25 10:43:14;;;;;;;2.70;1.40;;;12.30;99.90;;;;;;4978611;28;20511;-74
2024/03/25 10:45:47;;;;;;;2.73;1.47;;;12.30;99.90;;;;;;4983121;28;20464;-74
2024/03/25 10:48:19;;;;;;;3.10;2.10;;;12.20;99.90;;;;;;4966375;28;21077;-75
2024/03/25 10:50:46;;;;;;;6.87;2.10;;;12.00;99.90;;;;;;4972526;28;20896;-74
2024/03/25 10:53:14;;;;;;;4.37;1.77;;;11.90;99.90;;;;;;4986709;28;20477;-74
2024/03/25 10:55:40;;;;;;;2.23;1.87;;;11.60;99.90;;;;;;4967678;28;20469;-75
2024/03/25 10:58:08;;;;;;;2.97;2.07;;;11.70;99.90;;;;;;4984790;28;20461;-74
2024/03/25 11:00:37;;;;;;;5.07;2.10;;;11.80;99.90;;;;;;4979726;28;20488;-73
2024/03/25 11:03:04;;;;;;;2.43;2.10;;;11.80;99.90;;;;;;4983743;28;20456;-75
2024/03/25 11:05:30;;;;;;;4.50;2.53;;;12.00;99.90;;;;;;4985977;28;20466;-75
2024/03/25 11:07:56;;;;;;;3.67;2.07;;;11.90;99.90;;;;;;4984497;28;20502;-74
2024/03/25 11:10:29;;;;;;;4.43;1.90;;;11.90;99.90;;;;;;4989258;28;20507;-74
2024/03/25 11:12:55;;;;;;;1.90;1.80;;;12.00;99.90;;;;;;4967118;28;20779;-75
2024/03/25 11:15:21;;;;;;;2.27;1.80;;;12.00;99.90;;;;;;4980428;28;20461;-75
2024/03/25 11:17:51;;;;;;;1.90;1.80;;;11.90;99.90;;;;;;4985154;28;20214;-73
2024/03/25 11:20:17;;;;;;;3.10;2.00;;;11.80;99.90;;;;;;4985527;28;20469;-74
2024/03/25 11:22:50;;;;;;;1.63;1.53;;;11.90;99.90;;;;;;4984497;28;20457;-74
2024/03/25 11:25:16;;;;;;;1.60;1.50;;;12.20;99.90;;;;;;4982395;28;20563;-75
2024/03/25 11:27:44;;;;;;;2.07;1.50;;;12.20;99.90;;;;;;4983975;28;20465;-75
2024/03/25 11:30:14;;;;;;;3.30;1.57;;;12.30;99.90;;;;;;4984197;28;20458;-75
2024/03/25 11:32:52;;;;;;;5.43;1.70;;;12.60;99.90;;;;;;4986289;28;20540;-73
2024/03/25 11:35:18;;;;;;;2.63;1.87;;;12.90;99.90;;;;;;4962975;28;20461;-74
2024/03/25 11:37:45;;;;;;;1.87;1.40;;;12.50;99.90;;;;;;4977404;28;20475;-74
2024/03/25 11:40:13;;;;;;;3.23;2.50;;;12.80;99.90;;;;;;4984565;28;20453;-74
2024/03/25 11:42:40;;;;;;;1.97;1.80;;;13.20;99.90;;;;;;4975690;28;20966;-74
2024/03/25 11:45:07;;;;;;;1.90;1.40;;;13.30;99.90;;;;;;4967742;28;20466;-75
2024/03/25 11:47:33;;;;;;;2.40;1.83;;;13.50;99.90;;;;;;4971010;28;20482;-74
2024/03/25 11:49:59;;;;;;;3.67;1.37;;;13.50;99.90;;;;;;4984693;28;20940;-75
2024/03/25 11:52:30;;;;;;;4.83;2.00;;;13.60;99.90;;;;;;4972222;28;20563;-75
2024/03/25 11:54:56;;;;;;;1.97;1.70;;;12.90;99.90;;;;;;4981512;28;20304;-74
2024/03/25 11:57:22;;;;;;;1.90;1.50;;;12.80;99.90;;;;;;4984180;28;20477;-74
2024/03/25 11:59:49;;;;;;;1.60;1.50;;;12.70;99.90;;;;;;4982932;28;20458;-74
2024/03/25 12:02:18;;;;;;;2.80;2.10;;;12.80;99.90;;;;;;4980863;28;20465;-75
2024/03/25 12:04:44;;;;;;;3.80;1.50;;;12.80;99.90;;;;;;4984188;28;20842;-74
2024/03/25 12:07:14;;;;;;;2.20;2.00;;;12.60;99.90;;;;;;4981849;28;20468;-76
2024/03/25 12:12:26;;;;;;;2.20;1.80;;;13.50;99.90;;;;;;4979477;28;20446;-75
2024/03/25 12:14:53;;;;;;;1.53;1.43;;;13.20;99.90;;;;;;4967750;28;20518;-75
2024/03/25 12:17:22;;;;;;;1.80;1.70;;;13.40;99.90;;;;;;4967524;28;20449;-76
2024/03/25 12:20:05;;;;;;;1.60;1.50;;;13.80;99.90;;;;;;4970400;28;20963;-73
2024/03/25 12:22:32;;;;;;;1.40;1.30;;;13.70;99.90;;;;;;4982182;28;20453;-75
2024/03/25 12:25:00;;;;;;;2.20;1.80;;;13.60;99.90;;;;;;4963115;28;20471;-74
2024/03/25 12:27:27;;;;;;;2.83;1.30;;;13.90;99.90;;;;;;4987768;28;20566;-74
2024/03/25 12:30:04;;;;;;;1.70;1.60;;;14.20;99.90;;;;;;4987559;28;20461;-76
2024/03/25 12:32:41;;;;;;;3.10;1.80;;;14.30;99.90;;;;;;4963868;28;20468;-75
2024/03/25 12:35:09;;;;;;;1.73;1.57;;;14.40;99.90;;;;;;4984015;28;20460;-75
2024/03/25 12:37:44;;;;;;;2.70;1.80;;;14.30;99.90;;;;;;4966644;28;20445;-75
2024/03/25 12:40:11;;;;;;;2.20;1.37;;;14.30;99.90;;;;;;4983986;28;20524;-75
2024/03/25 12:42:39;;;;;;;2.30;1.93;;;14.30;99.90;;;;;;4980273;28;20466;-71
2024/03/25 12:45:06;;;;;;;2.20;1.53;;;14.40;99.90;;;;;;4985323;28;20483;-72
2024/03/25 12:47:31;;;;;;;3.40;1.90;;;14.40;99.90;;;;;;4981633;28;20548;-73
2024/03/25 12:49:58;;;;;;;2.90;2.07;;;14.60;99.90;;;;;;4978059;28;21363;-72
2024/03/25 12:52:23;;;;;;;2.20;2.00;;;14.70;99.90;;;;;;4979015;28;20244;-73
2024/03/25 12:54:49;;;;;;;2.10;1.70;;;14.70;99.90;;;;;;4982893;28;20512;-72
2024/03/25 12:57:15;;;;;;;2.40;1.80;;;14.80;99.90;;;;;;4980129;28;20309;-72
2024/03/25 12:59:41;;;;;;;5.43;1.80;;;14.80;99.90;;;;;;4981098;28;20218;-72
2024/03/25 13:02:12;;;;;;;2.60;1.40;;;14.90;99.90;;;;;;4980760;28;20218;-73